Time;durP1;ratioP1;P1;durP2;ratioP2;P2;SDS_P1;SDS_P2;PMS_P1;PMS_P2;Temp;Humidity;BMP_temperature;BMP_pressure;BME280_temperature;BME280_humidity;BME280_pressure;Samples;Min_cycle;Max_cycle;Signal;HPM_P1;HPM_P2
2022/12/02 00:01:12;;;;;;;;;40.25;32.25;;;;;5.70;77.39;100695.97;5058260;28;45369;-78
2022/12/02 00:03:38;;;;;;;;;28.50;25.00;;;;;5.66;77.92;100691.44;5058870;28;45434;-72
2022/12/02 00:06:09;;;;;;;;;28.50;24.75;;;;;5.60;78.00;100688.53;5058917;28;46250;-73
2022/12/02 00:08:36;;;;;;;;;30.25;28.50;;;;;5.54;78.05;100693.41;5055529;28;45507;-71
2022/12/02 00:11:17;;;;;;;;;33.50;26.00;;;;;5.46;78.31;100680.03;5057965;28;45571;-75
2022/12/02 00:13:43;;;;;;;;;36.00;29.50;;;;;5.42;78.04;100685.88;5056607;28;45207;-81
2022/12/02 00:16:19;;;;;;;;;28.75;24.00;;;;;5.32;77.99;100681.88;5056236;28;45448;-80
2022/12/02 00:18:44;;;;;;;;;27.50;25.00;;;;;5.28;78.20;100682.53;5055813;28;45587;-75
2022/12/02 00:21:12;;;;;;;;;46.50;38.75;;;;;5.10;78.20;100653.09;5055979;28;45476;-80
2022/12/02 00:23:37;;;;;;;;;42.50;33.75;;;;;5.17;79.01;100670.72;5056119;28;45571;-80
2022/12/02 00:26:03;;;;;;;;;41.75;37.50;;;;;5.14;79.05;100665.38;5055696;28;45415;-80
2022/12/02 00:28:29;;;;;;;;;41.75;33.50;;;;;5.08;79.85;100665.94;5055652;28;45354;-79
2022/12/02 00:30:54;;;;;;;;;30.00;26.50;;;;;5.03;79.43;100661.31;5055607;28;45591;-75
2022/12/02 00:33:20;;;;;;;;;30.75;25.75;;;;;5.00;79.74;100653.41;5056079;28;45438;-78
2022/12/02 00:35:46;;;;;;;;;27.25;23.75;;;;;4.97;79.79;100647.25;5055311;28;45472;-79
2022/12/02 00:38:12;;;;;;;;;20.50;19.75;;;;;4.95;79.15;100650.53;5052826;28;45464;-79
2022/12/02 00:40:37;;;;;;;;;18.75;16.75;;;;;4.72;78.54;100607.91;5055652;28;45466;-79
2022/12/02 00:48:32;;;;;;;;;15.50;13.50;;;;;4.76;78.71;100646.97;5052519;28;45251;-80
2022/12/02 00:50:57;;;;;;;;;15.00;14.75;;;;;4.74;79.02;100648.56;5060704;28;45467;-79
2022/12/02 00:53:23;;;;;;;;;20.25;16.50;;;;;4.71;78.92;100643.22;5062461;28;45559;-80
2022/12/02 00:55:48;;;;;;;;;20.00;15.50;;;;;4.51;78.36;100643.81;5062056;28;46756;-79
2022/12/02 00:58:14;;;;;;;;;17.25;14.75;;;;;4.43;78.50;100639.91;5061947;28;45542;-74
2022/12/02 01:00:39;;;;;;;;;17.25;14.00;;;;;4.38;78.69;100640.56;5061910;28;45675;-67
2022/12/02 01:03:05;;;;;;;;;14.75;13.25;;;;;4.38;78.98;100642.25;5061980;28;45325;-75
2022/12/02 01:05:30;;;;;;;;;16.00;14.25;;;;;4.36;79.45;100642.16;5061789;28;45466;-80
2022/12/02 01:07:56;;;;;;;;;17.75;15.25;;;;;4.33;79.72;100644.56;5061728;28;45408;-79
2022/12/02 01:10:21;;;;;;;;;17.75;15.00;;;;;4.32;79.65;100641.91;5062161;28;45489;-74
2022/12/02 01:12:47;;;;;;;;;15.25;14.00;;;;;4.23;79.66;100623.28;5062029;28;45643;-76
2022/12/02 01:15:12;;;;;;;;;20.75;15.50;;;;;4.26;79.63;100637.28;5061909;28;45671;-80
2022/12/02 01:17:38;;;;;;;;;21.25;19.00;;;;;4.23;80.15;100631.03;5061599;28;45558;-79
2022/12/02 01:20:04;;;;;;;;;18.25;13.75;;;;;4.13;79.21;100620.16;5061841;28;45533;-80
2022/12/02 01:22:30;;;;;;;;;13.50;12.00;;;;;4.24;79.28;100632.81;5062004;28;45421;-78
2022/12/02 01:24:55;;;;;;;;;13.50;12.00;;;;;4.23;78.75;100637.09;5061270;28;46237;-78
2022/12/02 01:27:21;;;;;;;;;14.00;13.25;;;;;4.22;78.60;100634.41;5061749;28;45555;-79
2022/12/02 01:29:47;;;;;;;;;15.75;13.00;;;;;4.19;78.52;100630.84;5061677;28;45363;-76
2022/12/02 01:32:13;;;;;;;;;18.00;15.25;;;;;4.16;78.61;100630.69;5061712;28;45534;-79
2022/12/02 01:34:38;;;;;;;;;14.75;14.25;;;;;4.15;78.74;100636.66;5061525;28;45487;-80
2022/12/02 01:37:04;;;;;;;;;15.50;14.00;;;;;4.12;78.66;100633.91;5061755;28;45831;-80
2022/12/02 01:39:29;;;;;;;;;14.00;13.00;;;;;4.04;78.39;100623.91;5061542;28;45477;-71
2022/12/02 01:41:55;;;;;;;;;15.00;13.75;;;;;3.85;78.82;100591.84;5061814;28;45371;-67
2022/12/02 01:44:21;;;;;;;;;15.75;14.00;;;;;3.98;78.70;100629.66;5061676;28;45391;-75
2022/12/02 01:46:46;;;;;;;;;14.00;12.50;;;;;3.92;78.99;100622.44;5061183;28;45547;-72
2022/12/02 01:49:12;;;;;;;;;7.50;6.75;;;;;3.97;78.70;100631.31;5077180;28;45382;-70
2022/12/02 01:51:38;;;;;;;;;17.00;14.75;;;;;3.97;79.23;100627.84;5061404;28;45393;-75
2022/12/02 01:54:03;;;;;;;;;14.25;13.25;;;;;3.96;79.47;100628.66;5059791;28;46347;-79
2022/12/02 01:56:29;;;;;;;;;13.50;12.25;;;;;3.75;79.59;100600.75;5061205;28;45352;-79
2022/12/02 01:58:55;;;;;;;;;16.50;14.50;;;;;3.73;79.39;100594.63;5062652;28;45437;-66
2022/12/02 02:01:29;;;;;;;;;18.25;16.25;;;;;3.90;79.10;100626.63;5061537;28;45409;-80
2022/12/02 02:03:55;;;;;;;;;18.00;17.00;;;;;3.89;79.44;100622.22;5059568;28;45361;-67
2022/12/02 02:06:24;;;;;;;;;28.25;25.00;;;;;3.88;78.65;100614.38;5059719;28;45364;-79
2022/12/02 02:08:51;;;;;;;;;20.25;17.00;;;;;3.87;79.11;100621.25;5059806;28;45313;-79
2022/12/02 02:11:17;;;;;;;;;22.75;17.50;;;;;3.83;79.00;100618.41;5059520;28;45290;-79
2022/12/02 02:13:42;;;;;;;;;22.00;19.75;;;;;3.78;79.04;100605.25;5059266;28;45439;-78
2022/12/02 02:16:08;;;;;;;;;28.75;21.50;;;;;3.79;78.53;100614.75;5059279;28;45489;-79
2022/12/02 02:18:34;;;;;;;;;25.75;20.00;;;;;3.73;78.94;100622.16;5059395;28;45298;-80
2022/12/02 02:21:00;;;;;;;;;20.75;16.75;;;;;3.70;78.88;100625.47;5059841;28;45373;-78
2022/12/02 02:23:26;;;;;;;;;21.75;19.75;;;;;3.71;78.72;100628.94;5059596;28;46079;-79
2022/12/02 02:25:55;;;;;;;;;21.25;17.50;;;;;3.68;78.83;100619.31;5059741;28;45273;-80
2022/12/02 02:28:23;;;;;;;;;22.00;19.25;;;;;3.67;78.92;100621.78;5059140;28;45970;-79
2022/12/02 02:30:52;;;;;;;;;22.75;17.50;;;;;3.53;78.71;100600.31;5059219;28;45412;-80
2022/12/02 02:33:20;;;;;;;;;18.50;16.50;;;;;3.29;78.84;100556.75;5059116;28;45452;-79
2022/12/02 02:35:47;;;;;;;;;19.25;16.75;;;;;3.53;78.90;100596.03;5057736;28;45288;-79
2022/12/02 02:38:17;;;;;;;;;17.00;14.00;;;;;3.59;78.81;100611.00;5059096;28;45506;-80
2022/12/02 02:40:43;;;;;;;;;12.00;11.75;;;;;3.57;78.83;100604.88;5059264;28;45500;-70
2022/12/02 02:43:10;;;;;;;;;13.25;12.50;;;;;3.44;78.40;100587.72;5058909;28;45537;-80
2022/12/02 02:45:38;;;;;;;;;14.75;12.25;;;;;3.29;78.46;100561.91;5058686;28;45278;-80
2022/12/02 02:48:07;;;;;;;;;13.25;12.75;;;;;3.52;78.62;100598.53;5058995;28;45376;-80
2022/12/02 02:50:35;;;;;;;;;20.25;16.50;;;;;3.49;78.40;100600.94;5059075;28;45452;-80
2022/12/02 02:53:00;;;;;;;;;13.50;11.75;;;;;3.46;79.47;100601.66;5058639;28;45473;-78
2022/12/02 02:55:27;;;;;;;;;18.25;15.00;;;;;3.45;79.14;100594.69;5058942;28;45498;-79
2022/12/02 02:57:53;;;;;;;;;13.25;12.75;;;;;3.19;78.65;100552.72;5059065;28;45872;-79
2022/12/02 03:00:21;;;;;;;;;14.50;13.00;;;;;3.41;79.37;100586.69;5058631;28;45401;-79
2022/12/02 03:02:54;;;;;;;;;12.50;12.25;;;;;3.22;79.08;100564.03;5058471;28;45509;-79
2022/12/02 03:05:21;;;;;;;;;15.75;13.00;;;;;3.37;78.70;100583.91;5058611;28;45500;-78
2022/12/02 03:07:48;;;;;;;;;15.00;13.00;;;;;3.25;78.85;100559.94;5058557;28;45495;-79
2022/12/02 03:10:14;;;;;;;;;52.00;39.75;;;;;3.36;79.00;100576.97;5058558;28;45509;-80
2022/12/02 03:12:40;;;;;;;;;26.25;19.75;;;;;3.34;79.09;100570.84;5057469;28;45510;-80
2022/12/02 03:15:08;;;;;;;;;16.50;16.00;;;;;3.35;79.06;100569.13;5057733;28;46102;-79
2022/12/02 03:17:33;;;;;;;;;21.25;20.00;;;;;3.31;79.05;100565.47;5058455;28;45449;-79
2022/12/02 03:19:59;;;;;;;;;20.50;18.25;;;;;3.31;78.50;100568.06;5058786;28;45809;-67
2022/12/02 03:22:25;;;;;;;;;11.00;9.00;;;;;3.31;78.48;100564.59;5058461;28;46369;-78
2022/12/02 03:24:51;;;;;;;;;11.00;10.50;;;;;3.27;78.70;100554.88;5058426;28;45341;-79
2022/12/02 03:27:16;;;;;;;;;10.00;9.00;;;;;3.23;78.62;100546.06;5058368;28;45404;-80
2022/12/02 03:29:42;;;;;;;;;12.00;10.00;;;;;3.20;79.42;100545.88;5058747;28;45510;-79
2022/12/02 03:32:09;;;;;;;;;12.00;10.00;;;;;3.19;78.85;100551.84;5058080;28;45566;-80
2022/12/02 03:34:38;;;;;;;;;16.00;13.25;;;;;3.16;79.21;100544.81;5058211;28;45491;-80
2022/12/02 03:37:03;;;;;;;;;17.00;12.75;;;;;3.14;80.16;100537.75;5058012;28;45461;-80
2022/12/02 03:39:29;;;;;;;;;12.75;12.75;;;;;3.14;79.87;100541.25;5058716;28;45384;-69
2022/12/02 03:41:55;;;;;;;;;10.00;10.00;;;;;3.10;79.31;100528.06;5057784;28;45484;-68
2022/12/02 03:44:21;;;;;;;;;17.50;12.75;;;;;3.12;79.60;100527.38;5058228;28;46191;-77
2022/12/02 03:46:47;;;;;;;;;15.75;12.50;;;;;3.12;79.56;100529.03;5058177;28;45479;-76
2022/12/02 03:49:13;;;;;;;;;20.50;19.00;;;;;3.10;79.77;100530.63;5058076;28;45168;-66
2022/12/02 03:51:40;;;;;;;;;24.75;20.00;;;;;3.07;79.90;100526.19;5056433;28;47033;-67
2022/12/02 03:54:06;;;;;;;;;8.50;8.00;;;;;3.05;79.06;100524.34;5057544;28;45459;-80
2022/12/02 03:56:39;;;;;;;;;14.25;12.50;;;;;2.96;79.34;100519.50;5057765;28;45466;-68
2022/12/02 03:59:06;;;;;;;;;12.25;10.25;;;;;2.97;79.83;100527.31;5058111;28;45471;-81
2022/12/02 04:01:31;;;;;;;;;11.75;11.75;;;;;2.87;79.08;100509.53;5058116;28;45442;-81
2022/12/02 04:03:57;;;;;;;;;13.00;10.25;;;;;2.98;79.01;100523.06;5057790;28;45464;-80
2022/12/02 04:06:23;;;;;;;;;18.50;16.00;;;;;2.95;79.96;100517.72;5057662;28;45305;-80
2022/12/02 04:08:48;;;;;;;;;15.25;12.25;;;;;2.89;80.23;100518.25;5057836;28;45318;-80
2022/12/02 04:11:14;;;;;;;;;20.75;20.00;;;;;2.87;80.01;100524.13;5057434;28;45507;-80
2022/12/02 04:13:40;;;;;;;;;17.00;15.25;;;;;2.84;79.83;100522.22;5057349;28;45287;-80
2022/12/02 04:16:06;;;;;;;;;18.00;16.00;;;;;2.82;80.60;100515.19;5057596;28;45574;-79
2022/12/02 04:18:31;;;;;;;;;15.00;13.00;;;;;2.81;80.39;100514.31;5058055;28;45406;-80
2022/12/02 04:20:57;;;;;;;;;13.00;11.75;;;;;2.80;80.75;100517.69;5057323;28;45444;-80
2022/12/02 04:23:23;;;;;;;;;13.25;12.75;;;;;2.81;80.58;100516.91;5057399;28;45409;-79
2022/12/02 04:25:48;;;;;;;;;15.00;13.00;;;;;2.79;80.95;100515.91;5056732;28;45484;-79
2022/12/02 04:28:14;;;;;;;;;12.50;9.50;;;;;2.77;81.27;100515.81;5057459;28;45196;-80
2022/12/02 04:30:39;;;;;;;;;11.25;8.75;;;;;2.77;80.91;100515.81;5057160;28;45456;-79
2022/12/02 04:33:05;;;;;;;;;11.75;10.25;;;;;2.77;80.27;100507.19;5072800;28;45527;-79
2022/12/02 04:35:30;;;;;;;;;12.00;12.00;;;;;2.73;80.42;100511.28;5056257;28;45467;-80
2022/12/02 04:37:56;;;;;;;;;9.75;9.00;;;;;2.72;80.04;100514.63;5057565;28;45434;-80
2022/12/02 04:40:21;;;;;;;;;16.75;14.25;;;;;2.72;79.65;100509.47;5056939;28;45535;-77
2022/12/02 04:42:47;;;;;;;;;20.75;15.25;;;;;2.72;79.87;100514.63;5057469;28;45555;-79
2022/12/02 04:45:14;;;;;;;;;16.00;15.25;;;;;2.71;79.01;100509.41;5057314;28;45480;-79
2022/12/02 04:47:39;;;;;;;;;14.00;10.25;;;;;2.70;79.82;100505.91;5057477;28;45424;-78
2022/12/02 04:50:06;;;;;;;;;11.25;9.50;;;;;2.44;79.75;100459.59;5056855;28;46183;-76
2022/12/02 04:52:32;;;;;;;;;19.00;13.00;;;;;2.67;79.19;100504.84;5057266;28;45573;-79
2022/12/02 04:54:57;;;;;;;;;15.50;12.75;;;;;2.66;79.30;100501.38;5057027;28;45403;-79
2022/12/02 04:57:23;;;;;;;;;20.00;18.50;;;;;2.54;79.59;100483.44;5057258;28;45405;-79
2022/12/02 04:59:48;;;;;;;;;14.75;13.00;;;;;2.56;79.83;100492.16;5056940;28;45273;-79
2022/12/02 05:02:14;;;;;;;;;18.75;15.25;;;;;2.60;79.08;100506.16;5056951;28;45397;-79
2022/12/02 05:04:39;;;;;;;;;16.00;14.25;;;;;2.57;79.90;100512.03;5057089;28;45373;-79
2022/12/02 05:07:05;;;;;;;;;29.25;24.25;;;;;2.56;79.91;100510.22;5056072;28;45870;-66
2022/12/02 05:09:31;;;;;;;;;20.00;16.50;;;;;2.53;79.64;100504.00;5057063;28;45423;-79
2022/12/02 05:11:56;;;;;;;;;23.00;16.00;;;;;2.55;79.39;100510.16;5056842;28;45531;-79
2022/12/02 05:14:22;;;;;;;;;17.25;14.25;;;;;2.47;80.44;100496.78;5056985;28;45463;-79
2022/12/02 05:16:47;;;;;;;;;21.25;16.00;;;;;2.53;80.28;100507.47;5056879;28;45698;-78
2022/12/02 05:19:13;;;;;;;;;15.25;12.50;;;;;2.42;80.66;100489.56;5056545;28;46035;-79
2022/12/02 05:21:38;;;;;;;;;14.50;13.75;;;;;2.54;80.80;100510.94;5055358;28;45478;-79
2022/12/02 05:24:04;;;;;;;;;17.25;16.00;;;;;2.53;80.82;100516.91;5057154;28;45492;-79
2022/12/02 05:26:30;;;;;;;;;14.75;12.50;;;;;2.50;80.98;100519.28;5056875;28;45590;-79
2022/12/02 05:28:55;;;;;;;;;16.75;12.75;;;;;2.48;80.91;100516.59;5056573;28;46008;-79
2022/12/02 05:31:21;;;;;;;;;16.00;12.50;;;;;2.47;80.56;100519.13;5056532;28;45465;-79
2022/12/02 05:33:46;;;;;;;;;16.00;11.00;;;;;2.48;80.12;100521.75;5056309;28;45502;-78
2022/12/02 05:36:12;;;;;;;;;15.50;15.25;;;;;2.46;80.39;100515.63;5054654;28;45488;-77
2022/12/02 05:38:38;;;;;;;;;15.75;11.75;;;;;2.43;80.65;100520.59;5058970;28;45999;-68
2022/12/02 05:41:04;;;;;;;;;13.25;13.00;;;;;2.43;80.85;100517.09;5059361;28;45575;-78
2022/12/02 05:43:36;;;;;;;;;13.25;11.00;;;;;2.42;80.72;100510.19;5059070;28;45445;-78
2022/12/02 05:46:11;;;;;;;;;12.50;12.25;;;;;2.37;80.51;100504.75;5056739;28;45776;-79
2022/12/02 05:48:36;;;;;;;;;15.00;12.25;;;;;2.40;80.25;100510.09;5058979;28;45303;-76
2022/12/02 05:51:13;;;;;;;;;18.50;16.00;;;;;2.32;79.94;100507.03;5059075;28;45527;-78
2022/12/02 05:53:41;;;;;;;;;25.50;20.50;;;;;2.27;79.94;100502.38;5058839;28;45464;-66
2022/12/02 05:56:12;;;;;;;;;22.75;20.75;;;;;2.31;79.79;100512.13;5059458;28;45472;-73
2022/12/02 05:58:40;;;;;;;;;18.50;17.00;;;;;2.23;80.07;100497.81;5058806;28;45471;-67
2022/12/02 06:01:18;;;;;;;;;20.25;18.25;;;;;2.27;79.24;100515.25;5058782;28;45467;-79
2022/12/02 06:03:44;;;;;;;;;22.50;18.50;;;;;2.24;79.89;100515.09;5056627;28;45543;-80
2022/12/02 06:06:10;;;;;;;;;21.75;21.00;;;;;2.28;79.50;100519.63;5058860;28;45524;-78
2022/12/02 06:08:36;;;;;;;;;25.50;21.50;;;;;2.28;79.59;100517.94;5058655;28;45425;-78
2022/12/02 06:11:29;;;;;;;;;30.25;23.00;;;;;2.28;79.87;100519.63;5058342;28;45326;-79
2022/12/02 06:13:58;;;;;;;;;26.25;20.25;;;;;2.26;79.72;100513.50;5057783;28;45471;-79
2022/12/02 06:16:27;;;;;;;;;37.75;31.25;;;;;1.92;79.75;100462.41;5058414;28;45417;-79
2022/12/02 06:18:53;;;;;;;;;48.00;42.50;;;;;2.04;79.44;100486.38;5058111;28;45450;-79
2022/12/02 06:21:21;;;;;;;;;42.00;32.25;;;;;2.23;79.52;100521.94;5058140;28;45501;-79
2022/12/02 06:23:50;;;;;;;;;34.00;31.50;;;;;2.11;79.78;100505.69;5058145;28;45311;-78
2022/12/02 06:26:17;;;;;;;;;17.75;11.75;;;;;2.24;80.01;100527.97;5058319;28;45505;-78
2022/12/02 06:28:46;;;;;;;;;43.50;37.00;;;;;2.24;80.29;100527.97;5057964;28;45571;-79
2022/12/02 06:31:19;;;;;;;;;37.75;36.25;;;;;2.23;80.43;100526.19;5058147;28;45324;-79
2022/12/02 06:33:49;;;;;;;;;30.25;28.25;;;;;2.13;80.19;100505.00;5056404;28;45807;-79
2022/12/02 06:36:21;;;;;;;;;41.25;31.75;;;;;2.22;79.99;100521.84;5058047;28;45567;-77
2022/12/02 06:38:54;;;;;;;;;26.25;22.75;;;;;2.21;80.00;100518.38;5057688;28;46399;-80
2022/12/02 06:41:24;;;;;;;;;38.00;33.25;;;;;2.19;80.02;100514.81;5054541;28;45253;-76
2022/12/02 06:46:37;;;;;;;;;41.00;38.50;;;;;2.11;80.28;100505.69;5058394;28;45361;-78
2022/12/02 06:49:19;;;;;;;;;37.25;29.50;;;;;2.11;80.29;100526.28;5058295;28;45465;-79
2022/12/02 06:51:46;;;;;;;;;39.75;36.50;;;;;1.86;80.20;100472.34;5058616;28;45309;-78
2022/12/02 06:54:19;;;;;;;;;39.25;35.00;;;;;2.11;79.85;100510.84;5058770;28;45470;-79
2022/12/02 06:56:46;;;;;;;;;40.75;35.00;;;;;2.10;80.31;100515.09;5059183;28;46132;-79
2022/12/02 06:59:14;;;;;;;;;28.00;25.00;;;;;1.76;79.97;100451.13;5060800;28;45456;-75
2022/12/02 07:01:42;;;;;;;;;34.25;31.25;;;;;1.81;80.98;100456.59;5061273;28;45315;-72
2022/12/02 07:04:07;;;;;;;;;25.25;22.75;;;;;2.08;80.81;100505.50;5059195;28;45218;-79
2022/12/02 07:06:37;;;;;;;;;36.50;31.75;;;;;1.94;80.86;100484.03;5058955;28;45491;-79
2022/12/02 07:09:11;;;;;;;;;68.75;54.50;;;;;2.05;80.74;100510.44;5058292;28;45501;-79
2022/12/02 07:11:49;;;;;;;;;56.75;45.00;;;;;1.98;80.29;100512.63;5058852;28;45293;-78
2022/12/02 07:14:33;;;;;;;;;36.00;32.50;;;;;1.99;80.37;100518.72;5058567;28;45358;-79
2022/12/02 07:17:05;;;;;;;;;36.50;31.75;;;;;1.96;80.23;100513.34;5058662;28;45460;-79
2022/12/02 07:19:42;;;;;;;;;77.50;61.25;;;;;1.98;79.80;100514.34;5058836;28;45970;-78
2022/12/02 07:22:18;;;;;;;;;78.00;56.00;;;;;1.99;80.01;100514.44;5058523;28;45370;-78
2022/12/02 07:24:54;;;;;;;;;68.00;53.25;;;;;1.71;79.75;100452.56;5058181;28;45420;-78
2022/12/02 07:27:29;;;;;;;;;44.00;34.25;;;;;2.04;79.88;100508.69;5058514;28;45329;-76
2022/12/02 07:29:56;;;;;;;;;30.00;25.25;;;;;2.06;79.42;100513.13;5058364;28;46109;-74
2022/12/02 07:32:22;;;;;;;;;32.50;28.75;;;;;2.09;79.43;100510.75;5057908;28;45490;-79
2022/12/02 07:34:47;;;;;;;;;38.00;32.25;;;;;2.16;79.18;100512.03;5057992;28;45432;-81
2022/12/02 07:37:14;;;;;;;;;39.00;33.25;;;;;2.23;79.69;100514.22;5058298;28;45354;-77
2022/12/02 07:39:39;;;;;;;;;48.50;40.75;;;;;2.32;79.01;100513.88;5058305;28;45327;-79
2022/12/02 07:42:05;;;;;;;;;51.75;41.25;;;;;2.39;78.80;100516.94;5057901;28;45547;-78
2022/12/02 07:44:31;;;;;;;;;47.50;40.25;;;;;2.47;78.75;100522.56;5058112;28;45318;-81
2022/12/02 07:46:56;;;;;;;;;51.75;43.75;;;;;2.54;78.65;100516.09;5056495;28;46074;-72
2022/12/02 07:49:22;;;;;;;;;46.25;37.50;;;;;2.56;78.37;100514.50;5056117;28;45471;-79
2022/12/02 07:51:47;;;;;;;;;71.25;53.50;;;;;2.62;78.07;100516.56;5056908;28;45363;-78
2022/12/02 07:54:13;;;;;;;;;67.50;54.25;;;;;2.68;78.30;100515.25;5055517;28;45618;-72
2022/12/02 07:56:39;;;;;;;;;67.00;54.50;;;;;2.68;77.60;100502.34;5057473;28;45397;-76
2022/12/02 07:59:04;;;;;;;;;51.25;41.00;;;;;2.74;78.32;100500.13;5055701;28;45625;-79
2022/12/02 08:01:30;;;;;;;;;59.75;46.25;;;;;2.94;77.78;100516.81;5056647;28;45369;-67
2022/12/02 08:03:56;;;;;;;;;60.00;48.00;;;;;3.03;77.30;100513.91;5056572;28;45476;-80
2022/12/02 08:06:21;;;;;;;;;76.50;60.75;;;;;3.08;77.19;100515.06;5056666;28;45350;-67
2022/12/02 08:08:47;;;;;;;;;56.00;43.25;;;;;3.18;77.03;100511.31;5055903;28;45307;-77
2022/12/02 08:11:12;;;;;;;;;51.75;39.75;;;;;3.32;77.46;100510.47;5056316;28;45317;-72
2022/12/02 08:13:38;;;;;;;;;51.00;43.50;;;;;3.25;77.17;100477.34;5056973;28;45484;-79
2022/12/02 08:16:05;;;;;;;;;52.75;40.00;;;;;3.55;76.05;100509.19;5055920;28;45364;-79
2022/12/02 08:18:30;;;;;;;;;52.75;43.25;;;;;3.66;75.68;100507.25;5055261;28;46468;-72
2022/12/02 08:20:56;;;;;;;;;51.50;44.25;;;;;3.61;75.45;100503.50;5055179;28;45565;-68
2022/12/02 08:23:22;;;;;;;;;60.00;45.25;;;;;3.64;75.05;100479.53;5055134;28;45900;-67
2022/12/02 08:25:47;;;;;;;;;39.00;34.25;;;;;3.93;75.45;100510.47;5055387;28;45436;-66
2022/12/02 08:28:13;;;;;;;;;65.50;50.00;;;;;3.95;74.85;100484.72;5054881;28;46169;-68
2022/12/02 08:30:40;;;;;;;;;60.50;48.00;;;;;4.14;74.79;100500.44;5055760;28;45525;-79
2022/12/02 08:33:06;;;;;;;;;61.00;49.25;;;;;4.27;74.81;100496.81;5055629;28;45813;-81
2022/12/02 08:35:32;;;;;;;;;57.50;45.00;;;;;4.18;74.51;100468.78;5056156;28;45349;-79
2022/12/02 08:37:57;;;;;;;;;60.00;46.25;;;;;4.55;74.67;100504.34;5055683;28;46170;-74
2022/12/02 08:40:23;;;;;;;;;63.00;50.50;;;;;4.64;73.76;100505.69;5055797;28;45436;-76
2022/12/02 08:42:49;;;;;;;;;55.75;43.75;;;;;4.62;73.41;100491.78;5051707;28;45368;-72
2022/12/02 08:45:15;;;;;;;;;55.25;47.25;;;;;4.59;73.21;100500.25;5056064;28;45422;-80
2022/12/02 08:47:41;;;;;;;;;38.25;34.75;;;;;4.61;72.98;100501.22;5057026;28;46049;-70
2022/12/02 08:50:06;;;;;;;;;101.75;93.25;;;;;4.58;73.08;100499.38;5056915;28;45465;-78
2022/12/02 08:52:32;;;;;;;;;85.67;64.00;;;;;4.71;73.60;100495.72;5056131;28;45685;-74
2022/12/02 08:54:58;;;;;;;;;49.00;41.50;;;;;4.80;73.02;100502.19;5056882;28;45553;-78
2022/12/02 08:57:24;;;;;;;;;85.00;66.00;;;;;4.76;73.16;100486.50;5054405;28;46024;-78
2022/12/02 08:59:50;;;;;;;;;113.33;101.67;;;;;4.93;73.44;100495.16;5055753;28;45409;-79
2022/12/02 09:02:16;;;;;;;;;67.25;54.75;;;;;5.12;73.60;100502.16;5056023;28;45453;-70
2022/12/02 09:04:41;;;;;;;;;58.75;50.00;;;;;5.20;71.90;100499.97;5055167;28;45614;-79
2022/12/02 09:07:07;;;;;;;;;56.75;48.00;;;;;5.26;72.16;100497.66;5055744;28;45468;-82
2022/12/02 09:09:33;;;;;;;;;51.50;43.00;;;;;5.32;71.88;100497.97;5054994;28;45366;-80
2022/12/02 09:11:59;;;;;;;;;52.50;43.50;;;;;5.42;71.23;100496.75;5058470;28;45499;-80
2022/12/02 09:14:25;;;;;;;;;58.00;46.75;;;;;5.44;71.50;100496.81;5058158;28;45531;-79
2022/12/02 09:16:51;;;;;;;;;43.00;38.50;;;;;5.57;71.82;100488.81;5058904;28;46114;-75
2022/12/02 09:19:16;;;;;;;;;113.75;100.25;;;;;5.66;71.24;100491.00;5058647;28;45533;-78
2022/12/02 09:21:42;;;;;;;;;78.00;62.00;;;;;5.84;71.44;100486.69;5058871;28;45310;-76
2022/12/02 09:24:07;;;;;;;;;46.00;41.00;;;;;6.08;70.47;100494.78;5059095;28;45522;-78
2022/12/02 09:26:33;;;;;;;;;68.75;54.00;;;;;6.22;69.51;100491.94;5058423;28;45527;-77
2022/12/02 09:28:59;;;;;;;;;25.25;22.00;;;;;6.36;69.71;100493.47;5058881;28;45558;-78
2022/12/02 09:31:25;;;;;;;;;52.75;43.25;;;;;6.40;69.32;100479.81;5058734;28;45428;-80
2022/12/02 09:33:55;;;;;;;;;37.75;29.00;;;;;6.44;69.41;100488.63;5059248;28;45180;-82
2022/12/02 09:36:23;;;;;;;;;21.75;17.50;;;;;6.56;69.14;100484.91;5058895;28;45797;-85
2022/12/02 09:38:55;;;;;;;;;20.75;20.00;;;;;6.71;68.91;100487.28;5058687;28;45448;-83
2022/12/02 09:41:23;;;;;;;;;25.25;20.75;;;;;6.85;68.71;100482.69;5057307;28;45622;-85
2022/12/02 09:43:50;;;;;;;;;30.25;25.00;;;;;6.94;68.58;100479.59;5059198;28;45346;-87
2022/12/02 09:46:16;;;;;;;;;26.50;23.50;;;;;6.99;67.96;100477.22;5056584;28;45586;-83
2022/12/02 09:48:45;;;;;;;;;29.50;26.50;;;;;7.07;68.03;100478.44;5059168;28;45726;-85
2022/12/02 09:51:11;;;;;;;;;38.00;32.50;;;;;7.15;68.34;100477.06;5059284;28;45479;-77
2022/12/02 09:53:39;;;;;;;;;35.25;28.00;;;;;7.31;67.73;100479.47;5058988;28;45385;-78
2022/12/02 09:56:12;;;;;;;;;47.25;37.00;;;;;7.48;67.90;100481.88;5058921;28;45276;-77
2022/12/02 09:58:38;;;;;;;;;66.50;48.50;;;;;7.66;67.35;100476.53;5059057;28;45376;-74
2022/12/02 10:01:08;;;;;;;;;60.25;46.75;;;;;7.81;67.35;100473.69;5058296;28;45487;-74
2022/12/02 10:03:34;;;;;;;;;35.25;32.00;;;;;7.87;66.19;100477.41;5056653;28;45440;-75
2022/12/02 10:06:05;;;;;;;;;45.00;35.50;;;;;7.94;66.19;100482.03;5058635;28;46043;-74
2022/12/02 10:08:31;;;;;;;;;58.00;47.00;;;;;7.96;65.90;100474.28;5058654;28;45299;-69
2022/12/02 10:10:57;;;;;;;;;59.00;47.25;;;;;7.95;65.52;100467.31;5059008;28;45168;-67
2022/12/02 10:13:23;;;;;;;;;46.00;38.50;;;;;7.91;65.90;100468.88;5059633;28;45322;-74
2022/12/02 10:15:50;;;;;;;;;97.67;81.67;;;;;7.47;65.99;100403.00;5059118;28;45472;-74
2022/12/02 10:18:19;;;;;;;;;31.25;28.25;;;;;7.89;66.25;100462.75;5059667;28;45444;-74
2022/12/02 10:20:46;;;;;;;;;42.00;38.25;;;;;7.93;65.36;100450.75;5059411;28;45371;-71
2022/12/02 10:23:53;;;;;;;;;39.00;35.75;;;;;7.93;65.96;100453.34;5058839;28;45223;-78
2022/12/02 10:26:19;;;;;;;;;33.75;29.75;;;;;7.90;65.31;100437.66;5047008;28;46078;-78
2022/12/02 10:29:07;;;;;;;;;46.75;41.25;;;;;7.82;65.03;100439.03;5056039;28;45317;-77
2022/12/02 10:31:33;;;;;;;;;44.25;37.25;;;;;7.77;65.74;100439.75;5056192;28;45845;-75
2022/12/02 10:34:02;;;;;;;;;27.25;25.25;;;;;8.02;66.65;100432.91;5029472;28;45301;-76
2022/12/02 10:36:37;;;;;;;;;25.50;21.75;;;;;8.31;65.90;100420.09;5045117;28;46379;-68
2022/12/02 10:39:26;;;;;;;;;35.75;30.75;;;;;8.60;65.51;100418.59;5048107;28;45753;-79
2022/12/02 10:42:06;;;;;;;;;32.50;28.00;;;;;8.83;64.45;100411.56;5053513;28;45536;-73
2022/12/02 10:44:34;;;;;;;;;39.00;35.50;;;;;8.91;63.50;100398.81;5055048;28;45746;-79
2022/12/02 10:47:21;;;;;;;;;35.75;33.00;;;;;8.85;63.27;100399.47;5055455;28;46289;-82
2022/12/02 10:49:51;;;;;;;;;38.75;29.75;;;;;8.73;64.12;100393.84;5057422;28;45290;-83
2022/12/02 10:52:23;;;;;;;;;41.75;34.50;;;;;8.88;65.09;100396.13;5057855;28;45329;-79
2022/12/02 10:54:52;;;;;;;;;33.50;29.00;;;;;9.09;64.46;100388.13;5056055;28;45512;-79
2022/12/02 10:57:28;;;;;;;;;25.00;22.25;;;;;9.25;64.46;100385.22;5057818;28;45678;-78
2022/12/02 10:59:56;;;;;;;;;25.75;23.50;;;;;8.65;63.06;100259.91;5055787;28;45466;-71
2022/12/02 11:02:29;;;;;;;;;23.50;22.00;;;;;9.34;64.53;100377.69;5057954;28;45526;-72
2022/12/02 11:04:57;;;;;;;;;24.25;21.50;;;;;9.51;63.69;100361.66;5055929;28;45305;-77
2022/12/02 11:07:24;;;;;;;;;40.50;35.50;;;;;9.43;63.35;100364.06;5057829;28;46002;-73
2022/12/02 11:09:55;;;;;;;;;22.50;20.75;;;;;9.54;63.87;100356.56;5058592;28;45920;-77
2022/12/02 11:12:55;;;;;;;;;26.00;20.00;;;;;9.61;63.76;100353.31;5058092;28;45256;-71
2022/12/02 11:15:35;;;;;;;;;17.25;14.75;;;;;9.71;63.78;100344.06;5058499;28;45423;-76
2022/12/02 11:18:02;;;;;;;;;16.50;15.75;;;;;9.53;63.22;100339.16;5058186;28;45389;-75
2022/12/02 11:20:34;;;;;;;;;17.75;17.50;;;;;9.64;64.08;100342.09;5057297;28;45489;-78
2022/12/02 11:23:00;;;;;;;;;23.75;21.00;;;;;9.79;63.33;100332.13;5057763;28;45422;-75
2022/12/02 11:26:02;;;;;;;;;16.25;16.00;;;;;9.83;62.35;100325.25;5058081;28;45635;-78
2022/12/02 11:28:27;;;;;;;;;15.00;14.75;;;;;9.81;62.88;100320.00;5034838;28;46116;-78